Terminal Aerodrome Forecast
Issued by NWS

Home | Current Version | Previous Version | Text Only | Print | Product List | Glossary On
Versions: 1 2 3 4 5 6 7 8 9 10 11 12 13 14 15 16
000
FTAK31 PAJN 172300
TAFAYA
TAF
PAYA 172337Z 1800/1824 VRB05KT P6SM SCT060 OVC080
     FM180300 11004KT P6SM VCSH BKN030 OVC060
     FM180900 10004KT P6SM -SHRA OVC025
     FM181200 10004KT 6SM -RA OVC020
     FM181800 14008KT P6SM -SHRA BKN025 OVC050
      AMD LTD TO CLD VIS AND WIND 1801/1810=

USA.gov is the U.S. government's official web portal to all federal, state and local government web resources and services.